Time;durP1;ratioP1;P1;durP2;ratioP2;P2;SDS_P1;SDS_P2;PMS_P1;PMS_P2;Temp;Humidity;BMP_temperature;BMP_pressure;BME280_temperature;BME280_humidity;BME280_pressure;Samples;Min_cycle;Max_cycle;Signal;HPM_P1;HPM_P2
2021/09/14 00:00:01;;;;;;;10.15;5.93;;;;;;;18.55;69.78;100272.66;5095522;28;20047;-74
2021/09/14 00:02:30;;;;;;;10.10;5.68;;;;;;;18.50;69.96;100276.78;5113394;28;20093;-74
2021/09/14 00:04:58;;;;;;;10.65;5.95;;;;;;;18.44;70.30;100285.47;5113491;28;20092;-74
2021/09/14 00:07:30;;;;;;;10.32;6.38;;;;;;;18.30;70.98;100279.47;5113021;28;20043;-74
2021/09/14 00:10:00;;;;;;;8.50;6.13;;;;;;;18.18;71.30;100288.72;5113443;28;20078;-74
2021/09/14 00:12:31;;;;;;;11.18;6.50;;;;;;;18.10;71.75;100283.16;5113252;28;20047;-74
2021/09/14 00:15:00;;;;;;;10.23;5.80;;;;;;;18.10;71.90;100283.16;5095375;28;20075;-74
2021/09/14 00:17:29;;;;;;;10.43;6.50;;;;;;;18.27;70.77;100282.47;5113073;28;20048;-74
2021/09/14 00:19:57;;;;;;;10.95;6.88;;;;;;;18.11;71.54;100281.31;5113740;28;20040;-74
2021/09/14 00:22:25;;;;;;;11.52;6.95;;;;;;;18.27;70.76;100290.56;5112902;28;20039;-74
2021/09/14 00:24:56;;;;;;;9.32;6.75;;;;;;;18.27;70.53;100285.16;5113672;28;20093;-75
2021/09/14 00:27:24;;;;;;;11.43;7.30;;;;;;;18.12;71.29;100291.09;5112806;28;20055;-78
2021/09/14 00:29:53;;;;;;;11.38;8.00;;;;;;;18.03;72.06;100288.25;5113202;28;20089;-78
2021/09/14 00:32:22;;;;;;;12.80;7.38;;;;;;;17.98;72.27;100289.69;5094897;28;20055;-76
2021/09/14 00:34:50;;;;;;;14.43;8.27;;;;;;;18.07;71.91;100282.59;5113202;28;20413;-74
2021/09/14 00:37:19;;;;;;;13.57;7.68;;;;;;;18.15;71.45;100291.69;5113125;28;20050;-74
2021/09/14 00:39:47;;;;;;;11.82;8.40;;;;;;;18.04;71.86;100289.09;5112863;28;20054;-77
2021/09/14 00:42:16;;;;;;;12.43;8.18;;;;;;;18.05;71.97;100288.13;5113001;28;20489;-74
2021/09/14 00:44:46;;;;;;;13.93;7.93;;;;;;;17.92;73.25;100287.53;5112769;28;20529;-72
2021/09/14 00:47:14;;;;;;;9.48;7.47;;;;;;;17.95;72.50;100287.22;5113328;28;20637;-71
2021/09/14 00:49:44;;;;;;;12.75;7.47;;;;;;;17.92;72.94;100296.47;5113080;28;20233;-71
2021/09/14 00:52:13;;;;;;;12.88;7.97;;;;;;;17.94;72.80;100296.31;5113088;28;20075;-73
2021/09/14 00:54:42;;;;;;;11.73;7.15;;;;;;;18.02;72.53;100293.78;5112778;28;20047;-75
2021/09/14 00:57:10;;;;;;;11.23;7.55;;;;;;;17.89;73.20;100301.28;5113225;28;20432;-75
2021/09/14 00:59:39;;;;;;;11.15;7.05;;;;;;;17.87;73.02;100297.88;5112596;28;20122;-75
2021/09/14 01:02:07;;;;;;;10.82;7.03;;;;;;;17.79;73.41;100286.94;5112811;28;20079;-75
2021/09/14 01:04:36;;;;;;;13.48;7.05;;;;;;;17.71;73.89;100293.00;5112754;28;20119;-77
2021/09/14 01:07:06;;;;;;;11.95;7.00;;;;;;;17.49;74.88;100288.63;5112959;28;20043;-77
2021/09/14 01:09:37;;;;;;;11.02;6.90;;;;;;;17.44;75.25;100288.19;5094188;28;20048;-76
2021/09/14 01:12:07;;;;;;;10.20;6.50;;;;;;;17.34;76.14;100285.44;5112917;28;20446;-76
2021/09/14 01:14:35;;;;;;;9.73;6.90;;;;;;;17.39;75.87;100285.03;5113179;28;20040;-76
2021/09/14 01:17:04;;;;;;;12.55;7.63;;;;;;;17.44;75.58;100288.19;5112975;28;20051;-75
2021/09/14 01:19:33;;;;;;;12.88;7.18;;;;;;;17.48;75.68;100286.94;5116156;28;20048;-75
2021/09/14 01:22:02;;;;;;;13.68;7.07;;;;;;;17.54;75.19;100286.38;5116528;28;20044;-75
2021/09/14 01:24:32;;;;;;;11.18;6.90;;;;;;;17.71;74.67;100288.47;5116511;28;20521;-74
2021/09/14 01:27:00;;;;;;;11.02;7.18;;;;;;;17.54;75.09;100286.38;5116443;28;20070;-73
2021/09/14 01:32:14;;;;;;;13.55;7.70;;;;;;;17.34;75.95;100295.38;5116500;28;20093;-75
2021/09/14 01:34:42;;;;;;;14.10;7.20;;;;;;;17.38;76.02;100291.44;5116361;28;20043;-73
2021/09/14 01:37:12;;;;;;;13.02;7.40;;;;;;;17.17;77.17;100288.75;5116785;28;20097;-73
2021/09/14 01:39:42;;;;;;;12.10;6.93;;;;;;;17.14;77.38;100297.09;5116059;28;20047;-74
2021/09/14 01:42:11;;;;;;;11.93;6.78;;;;;;;17.11;77.66;100300.06;5116297;28;20473;-74
2021/09/14 01:44:39;;;;;;;12.27;7.80;;;;;;;17.05;77.83;100293.38;5115807;28;20131;-74
2021/09/14 01:47:08;;;;;;;10.57;6.68;;;;;;;17.11;77.53;100284.75;5116251;28;20123;-76
2021/09/14 01:49:36;;;;;;;12.02;7.15;;;;;;;17.16;77.53;100292.44;5116010;28;20071;-76
2021/09/14 01:52:05;;;;;;;9.27;6.85;;;;;;;17.25;77.12;100290.78;5116293;28;20040;-76
2021/09/14 01:54:33;;;;;;;10.43;6.25;;;;;;;17.29;76.66;100287.69;5115985;28;20058;-76
2021/09/14 01:57:03;;;;;;;9.65;6.57;;;;;;;17.20;77.13;100298.44;5116076;28;20047;-76
2021/09/14 01:59:33;;;;;;;11.75;6.82;;;;;;;17.23;76.91;100300.84;5115678;28;20539;-76
2021/09/14 02:02:07;;;;;;;10.88;6.90;;;;;;;17.13;77.48;100298.09;5115812;28;20512;-76
2021/09/14 02:04:44;;;;;;;10.43;6.72;;;;;;;17.10;77.46;100296.53;5115839;28;20421;-77
2021/09/14 02:07:27;;;;;;;9.32;6.78;;;;;;;16.91;78.35;100309.88;5116132;28;20073;-78
2021/09/14 02:40:37;;;;;;;9.38;6.70;;;;;;;16.48;81.17;100309.91;5097107;28;20093;-78
2021/09/14 02:43:16;;;;;;;13.70;7.35;;;;;;;16.40;81.30;100315.94;5115132;28;20067;-75
2021/09/14 02:59:40;;;;;;;10.50;7.30;;;;;;;16.43;81.25;100325.63;5057283;28;20136;-75
2021/09/14 03:02:10;;;;;;;11.02;8.05;;;;;;;16.38;81.50;100326.00;5096727;28;20054;-74
2021/09/14 03:04:39;;;;;;;13.38;7.82;;;;;;;16.40;81.60;100320.47;5114585;28;20131;-72
2021/09/14 03:07:07;;;;;;;11.55;6.85;;;;;;;16.48;81.07;100315.31;5114714;28;20043;-73
2021/09/14 03:09:36;;;;;;;11.23;7.78;;;;;;;16.38;81.43;100314.38;5114431;28;20463;-73
2021/09/14 03:12:04;;;;;;;11.10;7.53;;;;;;;16.38;81.47;100323.28;5114523;28;20043;-72
2021/09/14 03:14:33;;;;;;;11.32;7.85;;;;;;;16.24;82.10;100320.91;5114191;28;20494;-83
2021/09/14 03:17:01;;;;;;;12.90;7.65;;;;;;;16.12;82.98;100316.53;5114692;28;20036;-73
2021/09/14 03:19:31;;;;;;;11.68;7.78;;;;;;;16.08;83.13;100320.44;5114318;28;20126;-74
2021/09/14 03:21:59;;;;;;;10.98;7.40;;;;;;;16.15;82.75;100311.75;5114242;28;20039;-72
2021/09/14 03:24:28;;;;;;;10.65;7.50;;;;;;;16.18;82.67;100316.03;5096251;28;20054;-72
2021/09/14 03:26:58;;;;;;;12.82;7.63;;;;;;;16.27;82.06;100312.56;5113962;28;20063;-81
2021/09/14 03:29:27;;;;;;;11.77;7.30;;;;;;;16.41;81.40;100314.97;5095942;28;20081;-81
2021/09/14 03:31:55;;;;;;;13.57;7.28;;;;;;;16.28;81.64;100317.81;5114041;28;20047;-77
2021/09/14 03:34:23;;;;;;;10.93;7.72;;;;;;;16.27;81.96;100312.56;5114315;28;20555;-77
2021/09/14 03:36:53;;;;;;;12.82;7.35;;;;;;;16.26;81.88;100314.41;5114041;28;20040;-77
2021/09/14 03:39:21;;;;;;;11.32;7.05;;;;;;;16.25;81.93;100314.53;5113996;28;20409;-75
2021/09/14 03:41:50;;;;;;;10.30;7.25;;;;;;;16.41;81.11;100323.06;5112903;28;20044;-74
2021/09/14 03:44:18;;;;;;;10.63;7.28;;;;;;;16.41;81.25;100332.97;5113822;28;20043;-74
2021/09/14 03:46:47;;;;;;;12.95;7.43;;;;;;;16.34;81.26;100321.84;5095887;28;20142;-74
2021/09/14 03:49:15;;;;;;;11.13;7.32;;;;;;;16.24;81.85;100320.91;5114014;28;20044;-74
2021/09/14 03:51:43;;;;;;;11.75;7.70;;;;;;;16.07;82.60;100321.44;5113773;28;20379;-74
2021/09/14 03:54:13;;;;;;;9.98;7.22;;;;;;;15.95;83.41;100326.84;5113686;28;20398;-74
2021/09/14 03:56:42;;;;;;;13.82;7.82;;;;;;;15.93;83.26;100323.44;5113309;28;20547;-76
2021/09/14 03:59:11;;;;;;;14.43;8.13;;;;;;;15.94;83.52;100326.97;5113589;28;20108;-76
2021/09/14 04:01:42;;;;;;;11.63;7.40;;;;;;;15.71;84.65;100331.50;5113284;28;20439;-76
2021/09/14 04:04:15;;;;;;;13.50;7.30;;;;;;;15.77;84.64;100332.84;5113463;28;20035;-76
2021/09/14 04:06:57;;;;;;;;;;;;;;;15.69;85.27;100336.16;5113633;28;20069;-76
2021/09/14 04:09:27;;;;;;;11.35;7.50;;;;;;;15.72;85.20;100335.88;5113399;28;19926;-76
2021/09/14 04:11:55;;;;;;;13.20;8.43;;;;;;;15.63;85.58;100334.81;5113021;28;20077;-76
2021/09/14 04:14:29;;;;;;;11.50;8.02;;;;;;;15.79;84.92;100342.50;5113786;28;20055;-72
2021/09/14 04:16:57;;;;;;;13.07;8.20;;;;;;;15.82;84.66;100339.56;5113033;28;20126;-74
2021/09/14 04:19:27;;;;;;;13.30;8.45;;;;;;;15.87;84.07;100339.19;5113612;28;20048;-74
2021/09/14 04:21:55;;;;;;;14.20;8.55;;;;;;;15.68;84.81;100335.28;5113158;28;20036;-78
2021/09/14 04:24:23;;;;;;;15.27;8.90;;;;;;;15.76;84.71;100342.75;5113486;28;20075;-77
2021/09/14 04:26:55;;;;;;;14.35;8.57;;;;;;;15.71;84.97;100339.56;5113127;28;20054;-76
2021/09/14 04:29:24;;;;;;;13.50;8.98;;;;;;;15.61;85.51;100339.44;5113113;28;20075;-77
2021/09/14 04:31:52;;;;;;;15.25;9.20;;;;;;;15.70;85.13;100343.22;5112787;28;20497;-77
2021/09/14 04:34:20;;;;;;;14.73;8.85;;;;;;;15.60;85.90;100337.72;5113224;28;20043;-77
2021/09/14 04:36:49;;;;;;;14.93;9.23;;;;;;;15.76;85.32;100340.06;5112939;28;20047;-77
2021/09/14 04:39:17;;;;;;;14.65;9.07;;;;;;;15.87;84.30;100345.44;5113102;28;20094;-77
2021/09/14 04:41:46;;;;;;;20.80;10.10;;;;;;;15.74;85.24;100350.09;5113041;28;20048;-77
2021/09/14 04:44:15;;;;;;;13.52;8.77;;;;;;;15.88;84.53;100360.59;5112943;28;20393;-77
2021/09/14 04:46:44;;;;;;;13.75;8.90;;;;;;;15.86;84.57;100357.16;5112853;28;20482;-76
2021/09/14 04:49:12;;;;;;;13.18;8.73;;;;;;;15.90;84.76;100358.63;5113110;28;20147;-77
2021/09/14 04:51:40;;;;;;;14.57;8.65;;;;;;;15.93;84.74;100354.84;5113080;28;20130;-78
2021/09/14 04:54:09;;;;;;;13.98;8.23;;;;;;;16.00;84.42;100361.41;5115914;28;20066;-77
2021/09/14 04:56:38;;;;;;;12.63;9.07;;;;;;;16.03;84.22;100364.75;5116848;28;20052;-77
2021/09/14 04:59:06;;;;;;;16.50;9.32;;;;;;;16.08;84.25;100352.72;5117487;28;20126;-80
2021/09/14 05:01:37;;;;;;;16.75;9.15;;;;;;;16.24;83.79;100361.28;5117003;28;20069;-80
2021/09/14 05:04:06;;;;;;;14.07;8.65;;;;;;;16.53;81.83;100359.72;5116848;28;20069;-81
2021/09/14 05:06:35;;;;;;;15.68;8.38;;;;;;;16.55;81.61;100362.28;5117064;28;20035;-76
2021/09/14 05:09:03;;;;;;;14.50;8.93;;;;;;;16.51;81.71;100372.47;5116459;28;20546;-75
2021/09/14 05:11:31;;;;;;;14.63;8.13;;;;;;;16.52;82.06;100366.09;5098631;28;20071;-74
2021/09/14 05:14:00;;;;;;;14.68;9.13;;;;;;;16.59;81.43;100364.56;5116597;28;20047;-73
2021/09/14 05:16:28;;;;;;;13.13;8.35;;;;;;;17.00;79.53;100368.38;5116776;28;20063;-73
2021/09/14 05:18:58;;;;;;;13.73;8.52;;;;;;;17.00;79.45;100373.75;5116347;28;20044;-74
2021/09/14 05:21:26;;;;;;;14.98;8.57;;;;;;;17.02;78.78;100366.41;5116523;28;20477;-71
2021/09/14 05:23:55;;;;;;;12.65;8.30;;;;;;;16.83;79.84;100366.25;5115967;28;20096;-73
2021/09/14 05:26:25;;;;;;;13.82;8.88;;;;;;;17.01;79.21;100370.06;5116195;28;20048;-74
2021/09/14 05:28:53;;;;;;;13.10;8.02;;;;;;;17.07;78.64;100369.53;5115936;28;20126;-78
2021/09/14 05:31:21;;;;;;;15.32;9.13;;;;;;;17.13;78.54;100369.03;5116530;28;20040;-74
2021/09/14 05:33:49;;;;;;;12.80;8.52;;;;;;;17.03;79.11;100368.09;5116041;28;20474;-71
2021/09/14 05:36:22;;;;;;;11.40;8.30;;;;;;;17.34;77.86;100371.72;5116042;28;20173;-70
2021/09/14 05:38:50;;;;;;;14.43;8.80;;;;;;;17.51;76.95;100372.94;5115969;28;20055;-71
2021/09/14 05:41:19;;;;;;;11.45;8.13;;;;;;;17.37;77.38;100375.97;5116425;28;20032;-72
2021/09/14 05:43:47;;;;;;;12.50;8.60;;;;;;;17.51;76.99;100377.50;5115713;28;20481;-69
2021/09/14 05:46:15;;;;;;;20.17;8.75;;;;;;;17.66;76.55;100377.00;5115324;28;20112;-70
2021/09/14 05:48:44;;;;;;;15.48;7.88;;;;;;;17.81;75.63;100377.53;5115271;28;20042;-69
2021/09/14 05:51:12;;;;;;;13.48;8.05;;;;;;;17.78;75.77;100379.66;5115126;28;20035;-70
2021/09/14 05:53:42;;;;;;;13.23;8.30;;;;;;;18.01;74.87;100383.84;5115137;28;20065;-70
2021/09/14 05:56:10;;;;;;;14.77;8.68;;;;;;;18.13;74.49;100374.66;5114880;28;20069;-70
2021/09/14 05:58:39;;;;;;;13.15;8.25;;;;;;;18.07;74.59;100375.22;5115308;28;20040;-70
2021/09/14 06:01:08;;;;;;;13.55;8.32;;;;;;;18.28;73.09;100378.69;5115070;28;20050;-71
2021/09/14 06:03:37;;;;;;;12.32;7.55;;;;;;;18.43;72.86;100381.84;5115562;28;20031;-70
2021/09/14 06:06:07;;;;;;;13.43;8.60;;;;;;;18.30;73.28;100379.38;5114310;28;20039;-70
2021/09/14 06:08:35;;;;;;;13.27;7.80;;;;;;;18.41;72.70;100378.41;5115628;28;20050;-70
2021/09/14 06:11:05;;;;;;;11.65;8.23;;;;;;;18.63;72.12;100374.63;5115398;28;20032;-70
2021/09/14 06:13:34;;;;;;;14.88;7.90;;;;;;;18.73;72.12;100382.75;5115695;28;20067;-69
2021/09/14 06:16:03;;;;;;;16.55;8.48;;;;;;;18.56;72.58;100382.44;5115351;28;20086;-68
2021/09/14 06:18:31;;;;;;;14.13;8.68;;;;;;;18.62;72.72;100386.41;5115537;28;20114;-69
2021/09/14 06:20:59;;;;;;;14.20;8.32;;;;;;;18.87;72.08;100379.63;5115699;28;20054;-69
2021/09/14 06:23:28;;;;;;;16.60;8.32;;;;;;;19.22;70.05;100384.44;5115508;28;20569;-71
2021/09/14 06:25:56;;;;;;;14.05;8.50;;;;;;;19.30;69.79;100384.59;5115043;28;20087;-71
2021/09/14 06:28:27;;;;;;;14.02;8.77;;;;;;;19.38;69.14;100381.13;5115501;28;20032;-71
2021/09/14 06:30:57;;;;;;;13.43;8.70;;;;;;;19.55;68.43;100390.34;5115451;28;20042;-72
2021/09/14 06:33:25;;;;;;;17.42;8.60;;;;;;;19.55;68.48;100390.34;5115613;28;20054;-71
2021/09/14 06:35:53;;;;;;;13.35;8.63;;;;;;;19.64;68.41;100384.94;5114937;28;20585;-72
2021/09/14 06:38:22;;;;;;;14.15;7.90;;;;;;;19.99;66.73;100392.38;5115287;28;20036;-73
2021/09/14 06:40:50;;;;;;;13.40;7.88;;;;;;;20.10;66.74;100379.63;5096863;28;20485;-73
2021/09/14 06:43:18;;;;;;;16.70;8.00;;;;;;;20.41;65.56;100378.31;5115323;28;20529;-71
2021/09/14 06:45:48;;;;;;;17.20;8.35;;;;;;;20.71;64.94;100376.28;5115388;28;20059;-76
2021/09/14 06:48:16;;;;;;;13.88;8.30;;;;;;;20.72;64.61;100380.69;5114973;28;20067;-77
2021/09/14 06:50:45;;;;;;;15.10;8.23;;;;;;;20.99;63.10;100382.47;5114907;28;20370;-77
2021/09/14 06:53:13;;;;;;;13.77;7.35;;;;;;;21.07;62.44;100383.41;5114623;28;20118;-78
2021/09/14 06:55:42;;;;;;;15.07;7.68;;;;;;;21.08;62.70;100379.66;5115006;28;20048;-81
2021/09/14 06:58:11;;;;;;;13.70;7.93;;;;;;;21.04;62.60;100375.59;5114330;28;20044;-75
2021/09/14 07:00:39;;;;;;;11.35;7.85;;;;;;;20.86;63.46;100374.75;5114750;28;20063;-73
2021/09/14 07:03:09;;;;;;;17.13;8.50;;;;;;;21.04;63.65;100374.72;5114073;28;20040;-73
2021/09/14 07:05:37;;;;;;;13.88;8.32;;;;;;;21.26;63.27;100379.69;5114149;28;20447;-73
2021/09/14 07:08:06;;;;;;;14.25;8.77;;;;;;;21.38;62.46;100377.56;5113899;28;20530;-73
2021/09/14 07:10:39;;;;;;;11.50;8.10;;;;;;;21.29;62.83;100375.78;5114099;27;20375;-73
2021/09/14 07:13:07;;;;;;;13.77;7.78;;;;;;;21.36;62.76;100382.28;5095775;28;20078;-74
2021/09/14 07:15:38;;;;;;;12.82;8.68;;;;;;;21.51;61.90;100386.13;5113915;28;20103;-74
2021/09/14 07:18:07;;;;;;;16.20;8.73;;;;;;;21.50;62.05;100391.69;5113465;28;20035;-73
2021/09/14 07:20:37;;;;;;;14.75;8.25;;;;;;;21.29;62.83;100387.50;5113417;28;20382;-74
2021/09/14 07:23:05;;;;;;;14.10;8.32;;;;;;;21.39;63.07;100380.09;5112733;28;20412;-74
2021/09/14 07:25:38;;;;;;;15.02;8.25;;;;;;;21.49;62.44;100385.44;5094619;28;20130;-75
2021/09/14 07:28:07;;;;;;;15.13;8.70;;;;;;;21.55;62.71;100389.38;5113284;28;20048;-74
2021/09/14 07:30:36;;;;;;;14.80;8.35;;;;;;;21.63;61.92;100390.28;5113845;28;20160;-74
2021/09/14 07:33:06;;;;;;;17.85;8.85;;;;;;;21.54;62.44;100388.53;5113306;28;20499;-74
2021/09/14 07:35:35;;;;;;;15.20;8.07;;;;;;;21.69;61.17;100394.19;5114131;28;20039;-74
2021/09/14 07:38:04;;;;;;;12.13;8.52;;;;;;;21.69;61.56;100386.91;5113695;28;20039;-74
2021/09/14 07:40:33;;;;;;;14.10;8.90;;;;;;;21.91;60.19;100385.53;5113654;28;20044;-74
2021/09/14 07:43:01;;;;;;;13.88;8.43;;;;;;;21.91;60.97;100385.53;5095679;28;20101;-74
2021/09/14 07:45:30;;;;;;;14.65;8.40;;;;;;;21.99;60.95;100382.81;5113894;28;20051;-72
2021/09/14 07:47:59;;;;;;;12.57;8.60;;;;;;;22.13;60.13;100389.56;5113843;28;20112;-72
2021/09/14 07:50:27;;;;;;;14.85;8.20;;;;;;;22.22;59.63;100385.84;5113887;28;20050;-72
2021/09/14 07:52:55;;;;;;;11.80;8.55;;;;;;;22.20;59.19;100378.91;5113839;28;20048;-72
2021/09/14 07:55:27;;;;;;;13.73;8.43;;;;;;;22.27;59.14;100386.19;5113844;28;20042;-71
2021/09/14 07:57:55;;;;;;;13.75;8.35;;;;;;;22.12;60.01;100387.84;5113573;28;20039;-72
2021/09/14 08:00:24;;;;;;;11.40;7.82;;;;;;;22.19;59.78;100388.03;5113473;28;20044;-72
2021/09/14 08:02:55;;;;;;;13.88;8.88;;;;;;;22.26;59.46;100383.66;5113610;28;20443;-72
2021/09/14 08:05:23;;;;;;;14.05;8.88;;;;;;;22.39;59.15;100388.59;5114010;28;20080;-74
2021/09/14 08:07:52;;;;;;;12.88;8.25;;;;;;;22.46;59.31;100385.06;5095310;28;20460;-73
2021/09/14 08:10:21;;;;;;;15.30;9.07;;;;;;;22.53;59.21;100382.56;5113441;28;20075;-73
2021/09/14 08:12:51;;;;;;;13.68;8.10;;;;;;;22.65;58.34;100383.94;5113575;28;20077;-73
2021/09/14 08:15:19;;;;;;;12.90;8.23;;;;;;;22.74;58.41;100387.50;5113395;28;20535;-73
2021/09/14 08:17:48;;;;;;;15.68;8.43;;;;;;;22.83;57.75;100389.22;5113515;28;20055;-73
2021/09/14 08:20:16;;;;;;;13.15;7.95;;;;;;;22.81;58.16;100386.69;5113186;28;20419;-73
2021/09/14 08:22:46;;;;;;;13.13;8.52;;;;;;;22.78;58.19;100384.31;5113230;28;20044;-73
2021/09/14 08:25:15;;;;;;;14.85;9.02;;;;;;;23.03;57.47;100385.19;5094216;28;20051;-73
2021/09/14 08:27:43;;;;;;;16.65;9.40;;;;;;;23.10;56.92;100383.50;5112685;28;20057;-73
2021/09/14 08:30:16;;;;;;;14.38;8.68;;;;;;;23.21;56.70;100384.19;5112591;28;20036;-73
2021/09/14 08:32:44;;;;;;;14.30;8.27;;;;;;;23.22;56.74;100388.59;5113224;28;20053;-73
2021/09/14 08:35:12;;;;;;;12.93;8.52;;;;;;;23.37;55.76;100379.59;5094831;28;20052;-73
2021/09/14 08:37:45;;;;;;;11.60;8.10;;;;;;;23.39;54.69;100382.13;5113108;28;20043;-73
2021/09/14 08:40:15;;;;;;;12.15;8.18;;;;;;;23.48;54.44;100374.81;5112351;28;20474;-73
2021/09/14 08:42:43;;;;;;;11.27;7.78;;;;;;;23.37;54.59;100370.56;5112534;28;20044;-73
2021/09/14 08:45:13;;;;;;;13.32;7.75;;;;;;;23.40;54.37;100373.78;5112322;28;20422;-73
2021/09/14 08:47:43;;;;;;;10.82;7.97;;;;;;;23.51;53.63;100374.44;5093469;28;20100;-72
2021/09/14 08:50:14;;;;;;;11.40;8.33;;;;;;;23.58;53.04;100370.03;5111646;28;20043;-73
2021/09/14 08:52:42;;;;;;;11.43;7.28;;;;;;;23.69;52.52;100365.09;5092421;28;20296;-73
2021/09/14 08:55:13;;;;;;;9.52;7.40;;;;;;;23.67;52.09;100360.84;5111135;28;20039;-72
2021/09/14 08:57:49;;;;;;;11.02;8.02;;;;;;;23.65;52.68;100365.63;5111139;28;20494;-73
2021/09/14 09:00:29;;;;;;;12.60;7.93;;;;;;;23.70;52.46;100374.09;5111399;28;20035;-73
2021/09/14 09:02:59;;;;;;;10.02;7.72;;;;;;;23.74;52.56;100367.31;5112128;28;20121;-73
2021/09/14 09:05:33;;;;;;;10.80;7.50;;;;;;;23.76;52.02;100365.25;5112874;28;20080;-73
2021/09/14 09:08:03;;;;;;;10.15;6.65;;;;;;;23.76;51.08;100372.56;5094486;28;20043;-76
2021/09/14 09:10:33;;;;;;;9.38;7.25;;;;;;;23.80;51.03;100374.75;5112897;28;20040;-73
2021/09/14 09:13:08;;;;;;;7.90;6.60;;;;;;;23.74;50.68;100367.31;5112721;28;20058;-73
2021/09/14 09:15:36;;;;;;;11.35;6.95;;;;;;;23.76;50.95;100373.41;5112889;28;20043;-72
2021/09/14 09:18:08;;;;;;;9.93;6.57;;;;;;;24.03;50.24;100371.25;5112430;28;20051;-73
2021/09/14 09:20:38;;;;;;;8.65;6.40;;;;;;;24.05;50.32;100377.41;5112859;28;20131;-74
2021/09/14 09:23:08;;;;;;;8.77;7.25;;;;;;;24.11;49.65;100368.50;5112542;28;20043;-72
2021/09/14 09:25:40;;;;;;;9.77;6.72;;;;;;;24.35;49.85;100373.88;5112708;28;20067;-73
2021/09/14 09:28:11;;;;;;;9.82;6.57;;;;;;;24.23;50.28;100376.13;5072077;28;20040;-72
2021/09/14 09:30:42;;;;;;;10.48;6.90;;;;;;;24.16;50.15;100380.59;5072377;28;20037;-73
2021/09/14 09:33:15;;;;;;;8.68;6.90;;;;;;;24.28;49.78;100376.44;5071886;28;20048;-73
2021/09/14 09:36:00;;;;;;;9.18;6.72;;;;;;;24.15;50.19;100372.59;5072184;28;20067;-72
2021/09/14 09:38:28;;;;;;;9.57;7.03;;;;;;;24.22;50.76;100379.00;5072001;28;20087;-73
2021/09/14 09:40:57;;;;;;;10.65;7.05;;;;;;;24.35;50.11;100373.88;5075531;28;20040;-73
2021/09/14 09:43:31;;;;;;;10.52;6.47;;;;;;;24.43;49.29;100371.13;5075361;28;20555;-73
2021/09/14 09:46:10;;;;;;;9.45;6.60;;;;;;;24.38;49.10;100368.06;5075375;28;20075;-73
2021/09/14 09:48:39;;;;;;;9.70;7.07;;;;;;;24.40;48.86;100366.00;5075680;28;20487;-73
2021/09/14 09:51:08;;;;;;;9.15;6.40;;;;;;;24.41;49.04;100370.44;5075280;28;20049;-73
2021/09/14 09:53:38;;;;;;;10.15;6.55;;;;;;;24.43;47.88;100365.66;5075437;28;20050;-73
2021/09/14 09:56:07;;;;;;;7.93;6.30;;;;;;;24.39;47.20;100369.75;5074933;28;20037;-74
2021/09/14 09:58:36;;;;;;;11.05;7.07;;;;;;;24.44;47.11;100370.09;5075120;28;20079;-71
2021/09/14 10:01:13;;;;;;;10.73;6.10;;;;;;;24.54;47.42;100367.13;5075145;28;20068;-73
2021/09/14 10:03:54;;;;;;;10.88;6.60;;;;;;;24.66;47.28;100367.56;5075116;28;20172;-73
2021/09/14 10:06:23;;;;;;;10.02;6.38;;;;;;;24.67;47.44;100361.91;5075008;28;20044;-71
2021/09/14 10:08:56;;;;;;;9.35;6.45;;;;;;;24.91;46.29;100368.25;5075022;28;20135;-73
2021/09/14 10:11:26;;;;;;;9.57;6.30;;;;;;;24.79;46.33;100359.63;5074990;28;20131;-73
2021/09/14 10:14:04;;;;;;;9.73;6.15;;;;;;;24.94;46.09;100357.81;5074696;28;20482;-73
2021/09/14 10:16:35;;;;;;;8.35;5.72;;;;;;;24.89;45.68;100354.75;5075081;28;20044;-73
2021/09/14 10:19:14;;;;;;;7.35;5.60;;;;;;;24.82;44.94;100349.22;5074631;28;20041;-73
2021/09/14 10:21:58;;;;;;;9.57;5.88;;;;;;;24.86;44.93;100346.13;5074081;28;20454;-73
2021/09/14 10:24:27;;;;;;;7.55;5.72;;;;;;;24.99;44.67;100349.91;5072726;28;20053;-73
2021/09/14 10:27:04;;;;;;;7.88;5.70;;;;;;;25.20;44.11;100340.25;5092827;27;20059;-73
2021/09/14 10:29:33;;;;;;;7.68;4.60;;;;;;;25.09;42.61;100344.22;5113730;28;20074;-73
2021/09/14 10:32:03;;;;;;;8.43;5.40;;;;;;;25.07;43.44;100341.69;5113867;28;20047;-73
2021/09/14 10:34:33;;;;;;;8.25;5.43;;;;;;;25.09;44.09;100344.22;5113836;28;20104;-73
2021/09/14 10:37:04;;;;;;;8.93;6.18;;;;;;;25.20;44.86;100340.25;5114707;28;20122;-73
2021/09/14 10:39:37;;;;;;;12.32;5.97;;;;;;;25.25;44.66;100340.50;5114597;28;20043;-73
2021/09/14 10:42:13;;;;;;;9.77;5.93;;;;;;;25.42;45.03;100338.47;5114327;28;20050;-73
2021/09/14 10:44:42;;;;;;;8.68;5.47;;;;;;;25.45;44.70;100338.94;5114317;28;20069;-73
2021/09/14 10:47:12;;;;;;;8.15;5.78;;;;;;;25.47;43.55;100336.88;5113915;28;20063;-73
2021/09/14 10:49:46;;;;;;;9.30;5.50;;;;;;;25.48;43.57;100337.72;5114037;28;20039;-73
2021/09/14 10:52:17;;;;;;;8.35;5.03;;;;;;;25.59;43.29;100337.28;5113787;28;20039;-73
2021/09/14 10:54:50;;;;;;;8.45;5.28;;;;;;;25.59;43.17;100335.41;5114719;28;20036;-73
2021/09/14 10:57:22;;;;;;;9.27;5.40;;;;;;;25.66;43.05;100330.00;5114471;28;20573;-73
2021/09/14 10:59:52;;;;;;;7.97;5.18;;;;;;;25.76;42.87;100324.28;5097003;28;20097;-72
2021/09/14 11:02:25;;;;;;;7.60;5.13;;;;;;;25.86;42.42;100330.31;5114822;28;20478;-73
2021/09/14 11:04:59;;;;;;;7.18;4.90;;;;;;;25.88;42.09;100322.81;5114742;28;20123;-73
2021/09/14 11:07:29;;;;;;;8.23;4.90;;;;;;;25.90;42.37;100326.19;5114321;28;20043;-73
2021/09/14 11:10:00;;;;;;;5.95;4.72;;;;;;;25.88;42.15;100322.81;5114884;28;20038;-72
2021/09/14 11:12:30;;;;;;;8.30;5.07;;;;;;;25.78;41.54;100322.25;5114155;28;20047;-73
2021/09/14 11:14:59;;;;;;;6.22;4.57;;;;;;;25.88;41.32;100320.91;5114340;28;20082;-73
2021/09/14 11:17:30;;;;;;;8.07;4.90;;;;;;;26.01;41.91;100314.75;5114274;28;20113;-73
2021/09/14 11:20:11;;;;;;;6.80;4.87;;;;;;;26.10;41.51;100315.50;5114251;28;20123;-73
2021/09/14 11:22:41;;;;;;;9.43;5.10;;;;;;;26.05;41.27;100326.16;5114242;28;20402;-73
2021/09/14 11:25:14;;;;;;;7.35;5.25;;;;;;;26.00;41.80;100320.44;5114450;28;20097;-73
2021/09/14 11:27:53;;;;;;;7.60;4.82;;;;;;;25.91;42.13;100314.22;5113882;28;20059;-73
2021/09/14 11:30:21;;;;;;;7.38;4.72;;;;;;;25.95;41.85;100310.06;5113933;28;20067;-74
2021/09/14 11:32:50;;;;;;;7.72;5.38;;;;;;;26.02;42.24;100307.41;5114072;28;20040;-73
2021/09/14 11:35:20;;;;;;;7.82;5.03;;;;;;;26.16;41.79;100314.75;5114169;28;20044;-73
2021/09/14 11:37:57;;;;;;;7.43;5.05;;;;;;;26.36;41.61;100306.78;5114084;28;20036;-73
2021/09/14 11:40:26;;;;;;;7.63;5.05;;;;;;;26.36;42.30;100304.03;5113505;28;20089;-73
2021/09/14 11:42:56;;;;;;;8.25;5.40;;;;;;;26.37;41.28;100303.88;5113747;28;20036;-73
2021/09/14 11:45:26;;;;;;;6.95;5.35;;;;;;;26.30;41.60;100302.91;5113527;28;20096;-73
2021/09/14 11:47:57;;;;;;;7.55;5.13;;;;;;;26.21;41.38;100295.88;5113676;28;20397;-72
2021/09/14 11:50:39;;;;;;;9.02;5.95;;;;;;;26.36;41.31;100295.84;5113528;28;20040;-72
2021/09/14 11:53:11;;;;;;;8.02;5.70;;;;;;;26.45;41.97;100303.75;5113851;28;20448;-73
2021/09/14 11:55:44;;;;;;;10.85;6.43;;;;;;;26.46;41.72;100299.13;5113916;28;20039;-72
2021/09/14 11:58:13;;;;;;;7.95;5.78;;;;;;;26.52;41.64;100298.34;5113779;28;20048;-76
2021/09/14 12:00:43;;;;;;;7.47;5.63;;;;;;;26.55;41.32;100297.97;5113279;28;20036;-73
2021/09/14 12:03:17;;;;;;;8.13;5.35;;;;;;;26.46;41.50;100296.41;5112474;28;20397;-73
2021/09/14 12:05:56;;;;;;;8.07;5.50;;;;;;;26.38;41.75;100302.00;5112702;28;20042;-73
2021/09/14 12:08:30;;;;;;;10.55;6.28;;;;;;;26.23;42.30;100299.25;5094462;28;20402;-73
2021/09/14 12:10:59;;;;;;;9.43;6.03;;;;;;;26.12;42.27;100292.41;5112912;28;20046;-73
2021/09/14 12:13:28;;;;;;;10.82;6.07;;;;;;;26.15;42.31;100288.44;5094113;28;20051;-73
2021/09/14 12:16:12;;;;;;;10.80;6.50;;;;;;;26.34;42.35;100284.22;5112120;28;20089;-73
2021/09/14 12:18:45;;;;;;;10.02;6.28;;;;;;;26.31;42.83;100282.72;5112091;28;20508;-73